Calmar/Wizard Lake Airport

CWL3 · Alberta, Kanada

Historia METAR CWL3 · Calmar/Wizard Lake Airport

Poniżej widzisz METAR-y z ostatnich kilku dni. Wybierz rok, aby przeglądać starsze METAR-y, począwszy od roku 2007.

25 lutego 2024

Czas Kod Pogoda Temp. Widoczność Sufit Wiatr METAR/SPECI
20:00
V
-6 °C 8 mi 4.000 ft 070° 070° 25 - 33 kt METAR CYEG 260300Z 07025G33KT 8SM -SN DRSN SCT015 OVC040 M06/M08 A2922 RMK SC3SC5 SLP936
19:46
V
-6 °C 8 mi 3.600 ft 070° 070° 22 kt METAR CYEG 260246Z 07022KT 8SM -SN DRSN FEW015 OVC036 M06/M08 A2923 RMK SC2SC6 SLP937
19:36
V
-6 °C 6 mi 3.700 ft 070° 070° 21 kt METAR CYEG 260236Z 07021KT 6SM -SN BR DRSN FEW015 OVC037 M06/M07 A2923 RMK SC1SC7 SLP938
19:24
M
-5 °C 4 mi 3.500 ft 060° 060° 16 - 24 kt METAR CYEG 260224Z 06016G24KT 4SM -SN BR DRSN OVC035 M05/M07 A2923 RMK SC8 SLP940
19:14
I
-5 °C 2 mi 3.500 ft 060° 060° 16 - 22 kt METAR CYEG 260214Z 06016G22KT 2SM -SN BR DRSN OVC035 M05/M06 A2923 RMK SN2SC6 PRESRR SLP937
19:00
I
-5 °C 1 mi 900 ft 070° 070° 19 - 24 kt METAR CYEG 260200Z 07019G24KT 1SM R12/P6000FT/D R02/P6000FT/N -SN BR DRSN VV009 M05/M06 A2921 RMK SN8 CIG VRB 006-012 VIS VRB 3/4-1 1/4 /S01/ SLP932
18:42
I
-5 °C 1 mi 900 ft 070° 070° 18 kt METAR CYEG 260142Z CCA 07018KT 1SM R12/6000FT/D R02/6000FT/D -SN BR DRSN VV009 M05/M06 A2922 RMK SN8 CIG VRB 006-012 VIS VRB 3/4-1 1/4 SLP935
18:31
I
-4 °C 1¼ mi 1.200 ft 060° 060° 14 - 20 kt METAR CYEG 260131Z 06014G20KT 1 1/4SM -SN BR DRSN VV012 M04/M05 A2922 RMK SN8 CIG VRB 009-015 SLP934
18:22
L
-4 °C ⅝ mi 2.000 ft 060° 060° 11 - 20 kt METAR CYEG 260122Z 06011G20KT 5/8SM R12/5000VP6000FT/U R02/5000VP6000FT/U -SN BR DRSN OVC020 M04/M04 A2922 RMK SN6NS2 SLP934
18:04
L
-3 °C ⅜ mi 400 ft 070° 070° 15 kt METAR CYEG 260104Z 07015KT 3/8SM R12/P6000FT/D R02/6000FT/D -SN FZFG VV004 M03/M04 A2921 RMK SN8 SLP931
17:38
I
-3 °C 1 mi 1.000 ft 070° 070° 10 kt METAR CYEG 260038Z 07010KT 1SM R12/6000FT/U R02/5000V6000FT/N -SN BR OVC010 M03/M03 A2921 RMK SN6ST2 CIG VRB 007-013 SLP930
17:22
L
-3 °C ⅝ mi 600 ft 080° 080° 10 kt METAR CYEG 260022Z 08010KT 5/8SM R12/P6000FT/N R02/5000V6000FT/U -SN BR OVC006 M03/M03 A2921 RMK SN6ST2 SLP930
17:10
L
-2 °C ⅝ mi 1.300 ft 100° 100° 12 kt METAR CYEG 260010Z CCA 10012KT 5/8SM R12/6000FT/D R02/5500V6000FT/D -SN BR DRSN OVC013 M02/M03 A2922 RMK SN6NS2 SLP932
17:00
I
-3 °C 2½ mi 2.900 ft 100° 100° 14 - 22 kt METAR CYEG 260000Z 10014G22KT 2 1/2SM -SN BR DRSN SCT007 OVC029 M03/M04 A2922 RMK SN3ST1NS4 SLP931
16:42
I
-2 °C 1½ mi 700 ft 090° 090° 12 kt METAR CYEG 252342Z 09012KT 1 1/2SM R02/5500VP6000FT/N -SN BR DRSN BKN007 OVC028 M02/M03 A2922 RMK SN5ST1NS2 SLP933
16:32
I
-2 °C 1¼ mi 1.200 ft 090° 090° 11 kt METAR CYEG 252332Z 09011KT 1 1/4SM -SN BR DRSN BKN012 OVC026 M02/M03 A2922 RMK SN5ST1NS2 SLP934
16:06
I
-3 °C 1½ mi 2.600 ft 100° 100° 17 kt METAR CYEG 252306Z 10017KT 1 1/2SM -SN BR DRSN OVC026 M03/M03 A2922 RMK SN6NS2 SLP933
15:19
L
-2 °C ⅝ mi 1.000 ft 100° 100° 15 kt METAR CYEG 252219Z 10015KT 5/8SM R12/5500VP6000FT/N R02/5000V5500FT/N -SN VV010 M02/M03 A2924 RMK SN8 CIG VRB 007-013 SLP938
15:07
L
-2 °C ¾ mi 1.100 ft 090° 090° 15 kt METAR CYEG 252207Z 09015KT 3/4SM R12/P6000FT/D R02/P6000FT/D -SN VV011 M02/M03 A2925 RMK SN8 CIG VRB 008-014 SLP942
14:00
I
-2 °C 1¼ mi 1.100 ft 110° 110° 10 - 16 kt METAR CYEG 252100Z 11010G16KT 1 1/4SM -SN BR VV011 M02/M03 A2930 RMK SN8 CIG VRB 008-014 SLP958
13:32
I
-1 °C 2½ mi 1.200 ft 130° 130° 11 kt METAR CYEG 252032Z 13011KT 2 1/2SM -SN BR VV012 M01/M04 A2932 RMK SN8 SUN DIMLY VISBL SLP965
13:27
M
-1 °C 4 mi 1.500 ft 120° 120° 12 kt METAR CYEG 252027Z 12012KT 4SM -SN BR BKN015 OVC023 M01/M04 A2933 RMK SC6SC2 SUN DIMLY VISBL SLP967
13:00
M
-1 °C 12 mi 2.300 ft 120° 120° 10 kt METAR CYEG 252000Z CCA 12010KT 12SM -SN SCT016 BKN023 OVC140 M01/M04 A2935 RMK SC3SC4AS1 -SN INTMT BR SLP975
12:24
M
-1 °C 12 mi 2.400 ft 150° 150° 6 kt METAR CYEG 251924Z 15006KT 12SM -SN FEW015 BKN024 OVC140 M01/M05 A2938 RMK SC2SC5AS1 SLP985
12:00
V
-1 °C 20 mi 4.000 ft 150° 150° 6 kt METAR CYEG 251900Z 15006KT 20SM FEW015 BKN040 OVC160 M01/M04 A2940 RMK SC2SC4AS2 VIRGA PTCHS SLP992
11:00
V
-2 °C 20 mi 6.000 ft 100° 100° 7 kt METAR CYEG 251800Z 10007KT 20SM SCT029 BKN060 OVC180 M02/M04 A2943 RMK SC3SC2AS3 VIRGA PTCHS SLP001
10:00
V
-2 °C 20 mi 18.000 ft 080° 080° 3 kt METAR CYEG 251700Z 08003KT 20SM SCT092 SCT120 BKN180 BKN250 M02/M04 A2946 RMK AC3AC1AS2CI1 VIRGA PTCHS SLP012
09:00
V
-5 °C 20 mi 9.200 ft Var Var 6 kt METAR CYEG 251600Z VRB06KT 20SM BKN092 BKN160 BKN250 M05/M06 A2948 RMK AC6AS1CI1 CI TR SLP021
08:00
V
-5 °C 20 mi 12.000 ft 180° 180° 6 kt METAR CYEG 251500Z 18006KT 20SM BKN120 BKN160 M05/M06 A2949 RMK AC6AS1 VIRGA PTCHS FROIN SLP026
07:00
V
-7 °C 20 mi 16.000 ft 190° 190° 6 kt METAR CYEG 251400Z 19006KT 20SM SCT120 BKN160 M07/M08 A2951 RMK AC3AS3 FROIN SLP033
06:00
V
-6 °C 20 mi 12.000 ft 190° 190° 5 kt METAR CYEG 251300Z 19005KT 20SM BKN120 M06/M07 A2953 RMK AC5 SLP038
05:00
V
-6 °C 20 mi 12.000 ft 180° 180° 6 kt METAR CYEG 251200Z CCA 18006KT 20SM BKN120 M06/M07 A2954 RMK AC5 FROIN SLP041
04:00
V
-7 °C 20 mi 20.000 ft 160° 160° 5 kt METAR CYEG 251100Z 16005KT 20SM SCT120 BKN200 M07/M08 A2955 RMK AC3CI3 SLP044
03:00
V
-5 °C 20 mi 12.000 ft 170° 170° 6 kt METAR CYEG 251000Z 17006KT 20SM FEW035 BKN120 BKN200 M05/M06 A2956 RMK SC2AC3CI2 SLP046
02:00
V
-4 °C 20 mi 12.000 ft 190° 190° 8 kt METAR CYEG 250900Z 19008KT 20SM SCT035 BKN120 BKN200 M04/M05 A2957 RMK SC4AC2CI1 SLP049
01:00
V
-6 °C 20 mi 20.000 ft 180° 180° 5 kt METAR CYEG 250800Z 18005KT 20SM FEW070 BKN200 M06/M07 A2959 RMK AC2CI5 SLP057
00:00
V
-6 °C 20 mi 20.000 ft 200° 200° 5 kt METAR CYEG 250700Z 20005KT 20SM SCT160 BKN200 M06/M08 A2960 RMK AC3CI3 SLP063

24 lutego 2024

Czas Kod Pogoda Temp. Widoczność Sufit Wiatr METAR/SPECI
23:37
V
-5 °C 20 mi 16.000 ft 200° 200° 5 kt METAR CYEG 250637Z 20005KT 20SM SCT046 BKN160 M05/M07 A2961 RMK SC3AC3 SLP064
23:00
V
-3 °C 15 mi 4.600 ft 220° 220° 6 kt METAR CYEG 250600Z 22006KT 15SM -SN BKN046 BKN160 M03/M06 A2962 RMK SC6AC1 SLP067
22:25
V
-3 °C 20 mi 4.600 ft 230° 230° 8 kt METAR CYEG 250525Z 23008KT 20SM -SN OVC046 M03/M07 A2962 RMK SC8 SLP067
22:00
V
-3 °C 20 mi 4.600 ft 220° 220° 8 kt METAR CYEG 250500Z 22008KT 20SM OVC046 M03/M07 A2962 RMK SC8 VIRGA N-NW SLP067
21:00
V
-3 °C 20 mi 7.500 ft 240° 240° 3 kt METAR CYEG 250400Z 24003KT 20SM BKN075 BKN120 M03/M09 A2963 RMK AS5AC2 VIRGA NW-NE SLP070
20:00
V
-3 °C 20 mi 7.500 ft 280° 280° 4 kt METAR CYEG 250300Z 28004KT 190V310 20SM OVC075 M03/M08 A2963 RMK AS8 VIRGA OHD SLP070
19:00
V
-3 °C 20 mi 9.000 ft 240° 240° 4 kt METAR CYEG 250200Z 24004KT 20SM OVC090 M03/M08 A2964 RMK AS8 SLP073
18:00
V
-2 °C 20 mi 12.000 ft 270° 270° 5 kt METAR CYEG 250100Z 27005KT 20SM FEW090 BKN120 BKN210 M02/M10 A2964 RMK AC1AS5CI1 SLP072
17:00
V
0 °C 20 mi 12.000 ft 290° 290° 9 kt METAR CYEG 250000Z 29009KT 20SM FEW045 FEW090 BKN120 BKN220 M00/M11 A2964 RMK CU1AC2AS4CS1 CU TR SLP072
16:00
V
0 °C 20 mi 11.000 ft 300° 300° 11 kt METAR CYEG 242300Z 30011KT 20SM FEW040 BKN110 BKN220 00/M11 A2966 RMK SC1AS6CS1 SC TR CONTRAILS SLP076
15:00
V
0 °C 20 mi 12.000 ft 320° 320° 15 kt METAR CYEG 242200Z 32015KT 20SM FEW040 BKN120 BKN220 00/M11 A2966 RMK SC1AS6CS1 SC TR SLP078
14:00
V
1 °C 20 mi 11.000 ft 300° 300° 15 kt METAR CYEG 242100Z 30015KT 20SM FEW040 BKN110 BKN220 01/M10 A2968 RMK SC1AC5CS2 SC TR SLP082
13:00
V
0 °C 20 mi 21.000 ft 310° 310° 13 - 21 kt METAR CYEG 242000Z 31013G21KT 20SM FEW030 SCT110 BKN210 00/M09 A2969 RMK SC1AC2CI4 SLP085
12:00
V
-1 °C 20 mi 11.000 ft 330° 330° 10 kt METAR CYEG 241900Z 33010KT 20SM FEW030 BKN110 BKN210 M01/M07 A2969 RMK SC1AC7CI1 SC TR CI TR VIRGA PTCHS SLP088
11:00
V
-2 °C 20 mi 9.700 ft 310° 310° 17 - 24 kt METAR CYEG 241800Z 31017G24KT 20SM FEW030 BKN097 BKN210 M02/M08 A2970 RMK SC1AC6CI1 CI TR SLP089
10:00
V
-2 °C 20 mi 9.100 ft 300° 300° 16 kt METAR CYEG 241700Z 30016KT 20SM FEW030 FEW060 BKN091 M02/M09 A2969 RMK SC1SC2AC5 SC TR VIRGA ALQDS SLP087
09:00
V
-2 °C 20 mi 10.000 ft 310° 310° 15 - 24 kt METAR CYEG 241600Z 31015G24KT 20SM FEW030 FEW060 BKN100 BKN150 BKN210 M02/M09 A2969 RMK SC1SC2AC3AC1CI1 SC TR VIRGA SE-SW W-NW SLP086
08:00
V
-2 °C 20 mi 6.000 ft 300° 300° 15 - 21 kt METAR CYEG 241500Z 30015G21KT 20SM FEW030 BKN060 BKN100 M02/M08 A2968 RMK SC1SC6AC1 SC TR VIRGA ALQDS SLP083
07:00
V
-1 °C 20 mi 8.000 ft 310° 310° 18 - 26 kt METAR CYEG 241400Z 31018G26KT 20SM FEW030 BKN080 BKN120 M01/M06 A2967 RMK SC2AC5AC1 AC TR VIRGA OHD SLP078
06:00
V
-1 °C 20 mi 12.000 ft 290° 290° 11 - 17 kt METAR CYEG 241300Z 29011G17KT 20SM SCT090 BKN120 M01/M05 A2964 RMK AC4AC2 SLP068
05:00
V
-1 °C 20 mi 7.000 ft 300° 300° 11 - 18 kt METAR CYEG 241200Z 30011G18KT 20SM BKN070 OVC110 M01/M04 A2964 RMK AC5AC3 SLP065
04:00
V
0 °C 20 mi 12.000 ft 280° 280° 9 kt METAR CYEG 241100Z 28009KT 20SM SCT070 BKN120 M00/M04 A2962 RMK AC4AC3 VIRGA OHD SLP056
03:00
V
0 °C 20 mi 7.000 ft 270° 270° 11 kt METAR CYEG 241000Z 27011KT 20SM BKN070 OVC120 M00/M03 A2962 RMK AC6AC2 SLP055
02:36
V
0 °C 20 mi 7.000 ft 280° 280° 11 kt METAR CYEG 240936Z 28011KT 20SM FEW012 BKN070 BKN120 M00/M04 A2963 RMK SF1AC5AC2 SF TR SLP055
02:00
V
0 °C 10 mi 3.800 ft 310° 310° 10 - 19 kt METAR CYEG 240900Z 31010G19KT 10SM -SN FEW012 BKN038 OVC070 M00/M03 A2963 RMK SF1SC6AC2 SF TR SLP057
01:23
V
0 °C 10 mi 3.800 ft 340° 340° 13 - 19 kt METAR CYEG 240823Z 34013G19KT 10SM -SN BKN038 OVC070 00/M01 A2962 RMK SC5AC3 SLP053
01:10
V
0 °C 5 mi 3.800 ft 330° 330° 15 - 24 kt METAR CYEG 240810Z 33015G24KT 5SM R02/3500VP6000FT/U R30/3500VP6000FT/U -SN BKN038 OVC070 00/M00 A2962 RMK SC5AC3 SLP055
01:00
M
1 °C 3 mi 3.800 ft 340° 340° 22 - 31 kt METAR CYEG 240800Z 34022G31KT 3SM -SN BKN038 OVC070 01/M02 A2962 RMK SC5AC3 PRESRR SLP054
01:02
I
0 °C 1½ mi 3.800 ft 340° 340° 20 - 31 kt METAR CYEG 240802Z 34020G31KT 1 1/2SM -SN OVC038 00/M01 A2962 RMK SN3SC5 PRESRR SLP055
00:45
V
1 °C 10 mi 3.800 ft 360° 360° 25 - 31 kt METAR CYEG 240745Z 36025G31KT 10SM -SN BKN038 OVC070 01/M02 A2959 RMK SC5AC3 WSHFT 0735 PRESRR SLP042
00:00
V
1 °C 20 mi 9.500 ft 360° 360° 0 kt METAR CYEG 240700Z 00000KT 20SM -SN SCT070 OVC095 01/M04 A2955 RMK AC3AC5 SLP031

23 lutego 2024

Czas Kod Pogoda Temp. Widoczność Sufit Wiatr METAR/SPECI
23:42
V
1 °C 20 mi 9.500 ft 010° 010° 5 kt METAR CYEG 240642Z 01005KT 20SM -SN SCT070 OVC095 01/M04 A2957 RMK AC3AC5 SLP037
23:00
V
3 °C 20 mi 9.500 ft 300° 300° 5 kt METAR CYEG 240600Z 30005KT 20SM BKN095 BKN120 BKN230 03/M05 A2956 RMK AC5AC1CI1 VIRGA NW-NE SLP033
22:00
V
2 °C 20 mi - 270° 270° 3 kt METAR CYEG 240500Z 27003KT 20SM FEW095 SCT120 SCT230 02/M04 A2957 RMK AC2AC1CI1 SLP039
21:00
V
2 °C 20 mi - 230° 230° 5 kt METAR CYEG 240400Z 23005KT 20SM SCT095 SCT120 02/M03 A2958 RMK AC4AC1 AC TR VIRGA N SLP047
20:00
V
3 °C 20 mi 8.900 ft 260° 260° 6 kt METAR CYEG 240300Z 26006KT 20SM BKN089 BKN120 03/M04 A2958 RMK AC5AC2 VIRGA NW-NE SLP050
19:00
V
5 °C 20 mi 8.900 ft 270° 270° 4 kt METAR CYEG 240200Z 27004KT 20SM BKN089 BKN140 05/M05 A2959 RMK AC7AC1 AC TR VIRGA NW-NE SLP050
18:15
V
2 °C 20 mi 14.000 ft 230° 230° 5 kt METAR CYEG 240115Z 23005KT 20SM FEW110 BKN140 BKN220 02/M03 A2957 RMK AC2AC3CI2 VIRGA DIST NE-SE SLP048
18:00
V
5 °C 20 mi 11.000 ft 230° 230° 5 kt METAR CYEG 240100Z 23005KT 20SM BKN110 BKN160 BKN220 05/M05 A2957 RMK AC6AC1CI1 CI TR VIRGA NE-SE SLP046
17:00
V
6 °C 20 mi 10.000 ft 260° 260° 4 kt METAR CYEG 240000Z 26004KT 20SM BKN100 BKN160 BKN220 06/M04 A2959 RMK AC7AC1CI1 AC TR CI TR VIRGA NW-E AND OHD SLP047
16:00
V
7 °C 20 mi 16.000 ft 260° 260° 6 kt METAR CYEG 232300Z 26006KT 20SM SCT110 BKN160 BKN220 07/M03 A2960 RMK AC4AC2CI1 VIRGA PTCHS NW-E SLP050
15:00
V
9 °C 20 mi 24.000 ft 260° 260° 7 kt METAR CYEG 232200Z 26007KT 20SM FEW120 FEW180 BKN240 09/M04 A2962 RMK AC1AC2CI4 AC TR SLP054 DENSITY ALT 2700FT
14:00
V
11 °C 20 mi - 300° 300° 9 kt METAR CYEG 232100Z 30009KT 20SM FEW160 SCT250 11/M04 A2965 RMK AC1CI4 AC TR SLP064 DENSITY ALT 2800FT
13:00
V
10 °C 20 mi - 260° 260° 11 - 17 kt METAR CYEG 232000Z 26011G17KT 20SM FEW160 FEW250 10/M03 A2969 RMK AC1CI1 AC TR SLP079 DENSITY ALT 2600FT
12:00
V
8 °C 20 mi - 260° 260° 12 kt METAR CYEG 231900Z 26012KT 20SM FEW080 FEW180 FEW250 08/M04 A2973 RMK AC1AC1CI1 AC TR AC TR SLP092
11:00
V
7 °C 20 mi - 260° 260° 12 kt METAR CYEG 231800Z 26012KT 20SM FEW250 07/M04 A2976 RMK CI1 CI TR SLP105
10:00
V
5 °C 20 mi - 250° 250° 7 kt METAR CYEG 231700Z 25007KT 20SM FEW250 05/M05 A2978 RMK CI1 SLP115
09:00
V
-1 °C 20 mi - 220° 220° 7 kt METAR CYEG 231600Z 22007KT 20SM FEW250 M01/M07 A2980 RMK CI2 SLP127
08:00
V
-3 °C 20 mi - 230° 230° 8 kt METAR CYEG 231500Z 23008KT 20SM SCT250 M03/M08 A2982 RMK CI3 SLP135
07:00
V
-2 °C 20 mi 25.000 ft 230° 230° 10 kt METAR CYEG 231400Z 23010KT 20SM BKN250 M02/M09 A2983 RMK CI5 SLP136
06:00
V
-3 °C 20 mi 25.000 ft 210° 210° 5 kt METAR CYEG 231300Z 21005KT 20SM BKN250 M03/M09 A2985 RMK CI6 SLP140
05:00
V
-1 °C 20 mi 25.000 ft Var Var 2 kt METAR CYEG 231200Z VRB02KT 20SM BKN250 M01/M08 A2986 RMK CI7 SLP140
04:00
V
-1 °C 20 mi 25.000 ft 260° 260° 6 kt METAR CYEG 231100Z 26006KT 20SM BKN250 M01/M08 A2986 RMK CI7 SLP139
03:00
V
-1 °C 20 mi 25.000 ft 250° 250° 6 kt METAR CYEG 231000Z 25006KT 20SM BKN250 M01/M07 A2987 RMK CI7 SLP143
02:00
V
-2 °C 20 mi 23.000 ft 240° 240° 6 kt METAR CYEG 230900Z 24006KT 20SM BKN230 M02/M06 A2988 RMK CI7 SLP147
01:00
V
0 °C 20 mi 23.000 ft 260° 260° 6 kt METAR CYEG 230800Z 26006KT 20SM OVC230 00/M06 A2989 RMK CI8 SLP150
00:00
V
1 °C 20 mi 23.000 ft 270° 270° 9 kt METAR CYEG 230700Z 27009KT 20SM BKN230 01/M06 A2989 RMK CI7 SLP150

22 lutego 2024

Czas Kod Pogoda Temp. Widoczność Sufit Wiatr METAR/SPECI
23:00
V
0 °C 20 mi 23.000 ft 250° 250° 8 kt METAR CYEG 230600Z 25008KT 20SM BKN230 M00/M05 A2989 RMK CI7 SLP154